Terminal Aerodrome Forecast
Issued by NWS

Home | Current Version | Previous Version | Text Only | Print | Product List | Glossary On
Versions: 1 2 3 4 5 6 7 8 9 10 11 12 13 14
000
FTUS43 KGRB 231700
TAFCWA
TAF
KCWA 231732Z 2318/2418 33006KT P6SM BKN040
      TEMPO 2318/2321 SCT040
     FM232100 36005KT P6SM SCT040
     FM240900 00000KT 1SM BR SKC
     FM241200 21003KT 6SM BR SKC
      TEMPO 2412/2414 2SM BR
     FM241500 24004KT P6SM SCT200=

USA.gov is the U.S. government's official web portal to all federal, state and local government web resources and services.